sensor_id;sensor_type;location;lat;lon;timestamp;pressure;altitude;pressure_sealevel;temperature;humidity
5455;BME280;2750;49.050;9.250;2022-10-14T00:02:11;98964.00;;;17.61;92.90
5455;BME280;2750;49.050;9.250;2022-10-14T00:07:14;98962.22;;;17.49;93.51
5455;BME280;2750;49.050;9.250;2022-10-14T00:12:15;98953.75;;;17.58;93.43
5455;BME280;2750;49.050;9.250;2022-10-14T00:17:17;98952.81;;;17.46;93.65
5455;BME280;2750;49.050;9.250;2022-10-14T00:22:20;98954.59;;;17.58;93.55
5455;BME280;2750;49.050;9.250;2022-10-14T00:27:21;98941.53;;;17.70;92.98
5455;BME280;2750;49.050;9.250;2022-10-14T00:32:23;98948.78;;;17.66;93.41
5455;BME280;2750;49.050;9.250;2022-10-14T00:37:26;98951.16;;;17.93;92.48
5455;BME280;2750;49.050;9.250;2022-10-14T00:42:31;98955.41;;;17.83;93.18
5455;BME280;2750;49.050;9.250;2022-10-14T00:47:33;98954.19;;;17.76;93.06
5455;BME280;2750;49.050;9.250;2022-10-14T00:52:36;98955.03;;;17.76;93.06
5455;BME280;2750;49.050;9.250;2022-10-14T00:57:38;98960.72;;;17.70;93.17
5455;BME280;2750;49.050;9.250;2022-10-14T01:02:40;98951.84;;;17.84;92.22
5455;BME280;2750;49.050;9.250;2022-10-14T01:07:49;98954.75;;;17.92;92.52
5455;BME280;2750;49.050;9.250;2022-10-14T01:13:01;98949.16;;;17.73;92.75
5455;BME280;2750;49.050;9.250;2022-10-14T01:18:16;98939.94;;;17.91;92.68
5455;BME280;2750;49.050;9.250;2022-10-14T01:23:38;98949.44;;;17.81;92.67
5455;BME280;2750;49.050;9.250;2022-10-14T01:28:50;98952.56;;;17.62;93.71
5455;BME280;2750;49.050;9.250;2022-10-14T01:33:59;98947.00;;;17.66;93.36
5455;BME280;2750;49.050;9.250;2022-10-14T01:39:07;98936.81;;;17.62;93.46
5455;BME280;2750;49.050;9.250;2022-10-14T01:44:13;98938.66;;;17.73;93.24
5455;BME280;2750;49.050;9.250;2022-10-14T01:49:23;98940.78;;;17.67;93.00
5455;BME280;2750;49.050;9.250;2022-10-14T01:54:29;98932.81;;;17.56;93.51
5455;BME280;2750;49.050;9.250;2022-10-14T01:59:32;98933.03;;;17.66;93.08
5455;BME280;2750;49.050;9.250;2022-10-14T02:04:37;98929.66;;;17.88;92.07
5455;BME280;2750;49.050;9.250;2022-10-14T02:09:44;98928.94;;;17.86;92.51
5455;BME280;2750;49.050;9.250;2022-10-14T02:14:53;98924.44;;;17.99;91.71
5455;BME280;2750;49.050;9.250;2022-10-14T02:20:05;98926.88;;;18.13;91.36
5455;BME280;2750;49.050;9.250;2022-10-14T02:25:13;98927.19;;;17.97;92.03
5455;BME280;2750;49.050;9.250;2022-10-14T02:30:17;98933.41;;;17.96;91.29
5455;BME280;2750;49.050;9.250;2022-10-14T02:35:22;98922.69;;;17.76;91.69
5455;BME280;2750;49.050;9.250;2022-10-14T02:40:32;98919.56;;;18.05;91.18
5455;BME280;2750;49.050;9.250;2022-10-14T02:45:36;98909.13;;;17.82;91.50
5455;BME280;2750;49.050;9.250;2022-10-14T02:50:39;98908.72;;;17.51;92.75
5455;BME280;2750;49.050;9.250;2022-10-14T02:55:41;98912.78;;;17.32;93.36
5455;BME280;2750;49.050;9.250;2022-10-14T03:00:43;98905.81;;;17.43;92.93
5455;BME280;2750;49.050;9.250;2022-10-14T03:05:46;98885.91;;;16.92;94.28
5455;BME280;2750;49.050;9.250;2022-10-14T03:10:47;98877.91;;;17.06;93.27
5455;BME280;2750;49.050;9.250;2022-10-14T03:15:49;98883.78;;;17.33;92.73
5455;BME280;2750;49.050;9.250;2022-10-14T03:20:53;98874.53;;;17.40;92.09
5455;BME280;2750;49.050;9.250;2022-10-14T03:25:54;98867.69;;;17.14;93.25
5455;BME280;2750;49.050;9.250;2022-10-14T03:30:56;98868.13;;;17.20;93.14
5455;BME280;2750;49.050;9.250;2022-10-14T03:35:59;98858.19;;;17.13;93.58
5455;BME280;2750;49.050;9.250;2022-10-14T03:41:00;98848.91;;;16.84;94.35
5455;BME280;2750;49.050;9.250;2022-10-14T03:46:02;98848.91;;;16.84;94.87
5455;BME280;2750;49.050;9.250;2022-10-14T03:51:05;98838.41;;;16.96;93.99
5455;BME280;2750;49.050;9.250;2022-10-14T03:56:06;98829.75;;;17.07;93.42
5455;BME280;2750;49.050;9.250;2022-10-14T04:01:08;98834.66;;;16.75;94.53
5455;BME280;2750;49.050;9.250;2022-10-14T04:06:11;98826.09;;;16.73;94.81
5455;BME280;2750;49.050;9.250;2022-10-14T04:11:13;98824.47;;;16.59;95.19
5455;BME280;2750;49.050;9.250;2022-10-14T04:16:16;98817.31;;;16.61;95.80
5455;BME280;2750;49.050;9.250;2022-10-14T04:21:19;98816.19;;;16.40;95.80
5455;BME280;2750;49.050;9.250;2022-10-14T04:26:20;98813.00;;;16.73;94.98
5455;BME280;2750;49.050;9.250;2022-10-14T04:31:22;98814.38;;;16.66;95.54
5455;BME280;2750;49.050;9.250;2022-10-14T04:36:25;98812.56;;;17.03;94.09
5455;BME280;2750;49.050;9.250;2022-10-14T04:41:26;98805.50;;;17.16;92.69
5455;BME280;2750;49.050;9.250;2022-10-14T04:46:28;98808.81;;;16.94;93.63
5455;BME280;2750;49.050;9.250;2022-10-14T04:51:32;98803.13;;;17.13;93.12
5455;BME280;2750;49.050;9.250;2022-10-14T04:56:33;98794.81;;;17.30;92.44
5455;BME280;2750;49.050;9.250;2022-10-14T05:01:35;98787.38;;;17.13;92.44
5455;BME280;2750;49.050;9.250;2022-10-14T05:06:38;98783.25;;;16.98;92.66
5455;BME280;2750;49.050;9.250;2022-10-14T05:11:39;98766.34;;;16.78;93.22
5455;BME280;2750;49.050;9.250;2022-10-14T05:16:41;98771.16;;;16.71;93.59
5455;BME280;2750;49.050;9.250;2022-10-14T05:21:44;98766.25;;;16.91;92.29
5455;BME280;2750;49.050;9.250;2022-10-14T05:26:45;98764.38;;;16.93;92.55
5455;BME280;2750;49.050;9.250;2022-10-14T05:31:47;98747.63;;;16.83;92.84
5455;BME280;2750;49.050;9.250;2022-10-14T05:36:50;98756.84;;;16.52;93.59
5455;BME280;2750;49.050;9.250;2022-10-14T05:41:52;98740.00;;;16.43;94.81
5455;BME280;2750;49.050;9.250;2022-10-14T05:46:54;98741.94;;;16.16;96.29
5455;BME280;2750;49.050;9.250;2022-10-14T05:51:56;98742.50;;;16.45;95.23
5455;BME280;2750;49.050;9.250;2022-10-14T05:56:59;98746.09;;;16.31;96.41
5455;BME280;2750;49.050;9.250;2022-10-14T06:02:01;98745.13;;;16.45;95.33
5455;BME280;2750;49.050;9.250;2022-10-14T06:07:04;98746.53;;;16.74;94.87
5455;BME280;2750;49.050;9.250;2022-10-14T06:12:06;98747.88;;;16.80;94.22
5455;BME280;2750;49.050;9.250;2022-10-14T06:17:08;98751.22;;;16.82;93.33
5455;BME280;2750;49.050;9.250;2022-10-14T06:22:11;98749.13;;;17.21;92.74
5455;BME280;2750;49.050;9.250;2022-10-14T06:27:12;98761.00;;;17.38;91.77
5455;BME280;2750;49.050;9.250;2022-10-14T06:32:14;98747.47;;;17.55;91.30
5455;BME280;2750;49.050;9.250;2022-10-14T06:37:16;98746.78;;;17.64;91.18
5455;BME280;2750;49.050;9.250;2022-10-14T06:42:18;98752.91;;;17.87;90.10
5455;BME280;2750;49.050;9.250;2022-10-14T06:47:20;98746.50;;;17.56;90.27
5455;BME280;2750;49.050;9.250;2022-10-14T06:52:23;98752.53;;;17.70;90.09
5455;BME280;2750;49.050;9.250;2022-10-14T06:57:25;98743.59;;;17.83;90.27
5455;BME280;2750;49.050;9.250;2022-10-14T07:02:26;98737.03;;;18.11;89.07
5455;BME280;2750;49.050;9.250;2022-10-14T07:07:30;98735.13;;;18.13;88.74
5455;BME280;2750;49.050;9.250;2022-10-14T07:12:32;98742.41;;;18.32;88.65
5455;BME280;2750;49.050;9.250;2022-10-14T07:17:33;98741.59;;;18.09;88.80
5455;BME280;2750;49.050;9.250;2022-10-14T07:22:36;98728.31;;;18.10;89.58
5455;BME280;2750;49.050;9.250;2022-10-14T07:27:38;98735.38;;;17.99;89.70
5455;BME280;2750;49.050;9.250;2022-10-14T07:32:39;98743.25;;;18.10;89.17
5455;BME280;2750;49.050;9.250;2022-10-14T07:37:42;98736.56;;;17.95;89.79
5455;BME280;2750;49.050;9.250;2022-10-14T07:42:44;98750.19;;;18.00;89.61
5455;BME280;2750;49.050;9.250;2022-10-14T07:47:47;98751.34;;;18.40;88.20
5455;BME280;2750;49.050;9.250;2022-10-14T07:52:50;98753.38;;;18.59;87.19
5455;BME280;2750;49.050;9.250;2022-10-14T07:57:52;98751.56;;;18.82;86.15
5455;BME280;2750;49.050;9.250;2022-10-14T08:02:53;98752.41;;;19.14;85.63
5455;BME280;2750;49.050;9.250;2022-10-14T08:07:56;98751.16;;;18.86;87.00
5455;BME280;2750;49.050;9.250;2022-10-14T08:12:58;98751.97;;;19.62;84.93
5455;BME280;2750;49.050;9.250;2022-10-14T08:18:00;98735.19;;;19.63;84.15
5455;BME280;2750;49.050;9.250;2022-10-14T08:23:02;98735.63;;;19.88;83.55
5455;BME280;2750;49.050;9.250;2022-10-14T08:28:04;98732.81;;;20.11;83.18
5455;BME280;2750;49.050;9.250;2022-10-14T08:33:06;98727.63;;;20.79;81.81
5455;BME280;2750;49.050;9.250;2022-10-14T08:38:09;98719.97;;;20.57;80.64
5455;BME280;2750;49.050;9.250;2022-10-14T08:43:16;98715.53;;;20.58;81.88
5455;BME280;2750;49.050;9.250;2022-10-14T08:48:24;98708.59;;;20.76;80.24
5455;BME280;2750;49.050;9.250;2022-10-14T08:53:33;98707.03;;;20.14;81.01
5455;BME280;2750;49.050;9.250;2022-10-14T08:58:40;98707.59;;;19.87;83.18
5455;BME280;2750;49.050;9.250;2022-10-14T09:03:42;98703.59;;;19.63;83.93
5455;BME280;2750;49.050;9.250;2022-10-14T09:08:47;98705.41;;;19.62;83.58
5455;BME280;2750;49.050;9.250;2022-10-14T09:13:53;98715.31;;;19.17;84.58
5455;BME280;2750;49.050;9.250;2022-10-14T09:18:59;98708.25;;;19.18;84.90
5455;BME280;2750;49.050;9.250;2022-10-14T09:24:09;98705.50;;;19.19;85.37
5455;BME280;2750;49.050;9.250;2022-10-14T09:29:20;98707.72;;;18.71;87.20
5455;BME280;2750;49.050;9.250;2022-10-14T09:34:28;98705.34;;;18.68;87.16
5455;BME280;2750;49.050;9.250;2022-10-14T09:39:33;98705.25;;;18.90;85.77
5455;BME280;2750;49.050;9.250;2022-10-14T09:44:39;98698.78;;;18.94;85.85
5455;BME280;2750;49.050;9.250;2022-10-14T09:49:42;98698.41;;;19.51;84.29
5455;BME280;2750;49.050;9.250;2022-10-14T09:54:51;98693.59;;;19.87;83.26
5455;BME280;2750;49.050;9.250;2022-10-14T09:59:55;98690.88;;;19.98;83.95
5455;BME280;2750;49.050;9.250;2022-10-14T10:05:11;98688.31;;;20.67;81.57
5455;BME280;2750;49.050;9.250;2022-10-14T10:10:19;98677.94;;;21.04;80.16
5455;BME280;2750;49.050;9.250;2022-10-14T10:15:21;98672.53;;;21.15;79.62
5455;BME280;2750;49.050;9.250;2022-10-14T10:20:25;98672.22;;;21.08;79.72
5455;BME280;2750;49.050;9.250;2022-10-14T10:25:33;98660.00;;;21.07;79.95
5455;BME280;2750;49.050;9.250;2022-10-14T10:30:38;98654.19;;;21.23;79.63
5455;BME280;2750;49.050;9.250;2022-10-14T10:36:14;98644.47;;;21.14;79.31
5455;BME280;2750;49.050;9.250;2022-10-14T10:41:32;98629.34;;;21.16;79.13
5455;BME280;2750;49.050;9.250;2022-10-14T10:46:54;98618.88;;;21.33;78.33
5455;BME280;2750;49.050;9.250;2022-10-14T10:52:05;98604.72;;;21.89;77.87
5455;BME280;2750;49.050;9.250;2022-10-14T10:57:24;98611.22;;;22.04;76.84
5455;BME280;2750;49.050;9.250;2022-10-14T11:02:52;98606.81;;;22.22;75.93
5455;BME280;2750;49.050;9.250;2022-10-14T11:07:58;98601.31;;;22.51;74.95
5455;BME280;2750;49.050;9.250;2022-10-14T11:13:27;98594.78;;;22.73;74.44
5455;BME280;2750;49.050;9.250;2022-10-14T11:18:41;98582.84;;;22.69;74.07
5455;BME280;2750;49.050;9.250;2022-10-14T11:24:05;98574.09;;;23.20;73.88
5455;BME280;2750;49.050;9.250;2022-10-14T11:29:18;98567.00;;;23.20;72.86
5455;BME280;2750;49.050;9.250;2022-10-14T11:34:41;98564.34;;;22.77;74.42
5455;BME280;2750;49.050;9.250;2022-10-14T11:39:47;98563.16;;;22.54;75.17
5455;BME280;2750;49.050;9.250;2022-10-14T11:45:00;98558.78;;;22.45;75.42
5455;BME280;2750;49.050;9.250;2022-10-14T11:50:13;98557.50;;;22.49;76.43
5455;BME280;2750;49.050;9.250;2022-10-14T11:55:18;98562.66;;;22.05;78.42
5455;BME280;2750;49.050;9.250;2022-10-14T12:00:27;98564.13;;;21.63;81.37
5455;BME280;2750;49.050;9.250;2022-10-14T12:05:51;98560.25;;;21.11;83.74
5455;BME280;2750;49.050;9.250;2022-10-14T12:11:02;98548.41;;;20.49;86.34
5455;BME280;2750;49.050;9.250;2022-10-14T12:16:12;98549.75;;;20.24;88.76
5455;BME280;2750;49.050;9.250;2022-10-14T12:21:16;98543.66;;;20.14;90.11
5455;BME280;2750;49.050;9.250;2022-10-14T12:26:37;98526.69;;;20.93;87.74
5455;BME280;2750;49.050;9.250;2022-10-14T12:31:48;98517.38;;;20.99;86.00
5455;BME280;2750;49.050;9.250;2022-10-14T12:36:50;98512.00;;;21.28;84.94
5455;BME280;2750;49.050;9.250;2022-10-14T12:41:54;98504.44;;;21.97;83.61
5455;BME280;2750;49.050;9.250;2022-10-14T12:46:59;98505.69;;;22.64;81.54
5455;BME280;2750;49.050;9.250;2022-10-14T12:52:05;98492.28;;;23.43;78.61
5455;BME280;2750;49.050;9.250;2022-10-14T12:57:20;98495.63;;;24.03;76.76
5455;BME280;2750;49.050;9.250;2022-10-14T13:02:29;98486.25;;;24.33;75.72
5455;BME280;2750;49.050;9.250;2022-10-14T13:07:40;98474.63;;;24.58;74.41
5455;BME280;2750;49.050;9.250;2022-10-14T13:12:43;98479.22;;;23.99;75.65
5455;BME280;2750;49.050;9.250;2022-10-14T13:17:46;98482.44;;;24.51;74.16
5455;BME280;2750;49.050;9.250;2022-10-14T13:22:48;98479.59;;;24.61;73.67
5455;BME280;2750;49.050;9.250;2022-10-14T13:28:19;98477.13;;;24.27;73.96
5455;BME280;2750;49.050;9.250;2022-10-14T13:33:30;98467.88;;;23.57;75.86
5455;BME280;2750;49.050;9.250;2022-10-14T13:38:34;98470.41;;;23.41;76.72
5455;BME280;2750;49.050;9.250;2022-10-14T13:43:38;98465.94;;;23.83;75.95
5455;BME280;2750;49.050;9.250;2022-10-14T13:48:45;98454.94;;;23.62;76.74
5455;BME280;2750;49.050;9.250;2022-10-14T13:53:51;98462.44;;;23.74;76.52
5455;BME280;2750;49.050;9.250;2022-10-14T13:58:53;98457.94;;;23.25;77.57
5455;BME280;2750;49.050;9.250;2022-10-14T14:03:56;98455.63;;;22.45;80.33
5455;BME280;2750;49.050;9.250;2022-10-14T14:09:01;98442.50;;;22.61;82.48
5455;BME280;2750;49.050;9.250;2022-10-14T14:14:06;98432.59;;;22.63;82.61
5455;BME280;2750;49.050;9.250;2022-10-14T14:19:18;98414.91;;;22.89;82.34
5455;BME280;2750;49.050;9.250;2022-10-14T14:24:22;98416.84;;;23.13;81.90
5455;BME280;2750;49.050;9.250;2022-10-14T14:29:26;98405.81;;;23.25;79.67
5455;BME280;2750;49.050;9.250;2022-10-14T14:34:29;98405.78;;;22.83;79.63
5455;BME280;2750;49.050;9.250;2022-10-14T14:39:31;98416.50;;;22.56;79.77
5455;BME280;2750;49.050;9.250;2022-10-14T14:44:32;98405.91;;;22.74;79.63
5455;BME280;2750;49.050;9.250;2022-10-14T14:49:36;98404.91;;;21.88;80.13
5455;BME280;2750;49.050;9.250;2022-10-14T14:54:43;98410.84;;;21.27;82.01
5455;BME280;2750;49.050;9.250;2022-10-14T14:59:51;98420.59;;;20.53;85.93
5455;BME280;2750;49.050;9.250;2022-10-14T15:05:00;98411.91;;;19.85;90.20
5455;BME280;2750;49.050;9.250;2022-10-14T15:10:04;98424.81;;;20.08;90.69
5455;BME280;2750;49.050;9.250;2022-10-14T15:15:24;98415.50;;;20.03;90.39
5455;BME280;2750;49.050;9.250;2022-10-14T15:20:29;98427.13;;;19.53;92.19
5455;BME280;2750;49.050;9.250;2022-10-14T15:25:31;98438.84;;;18.69;97.23
5455;BME280;2750;49.050;9.250;2022-10-14T15:30:34;98421.28;;;19.00;96.95
5455;BME280;2750;49.050;9.250;2022-10-14T15:35:57;98424.91;;;19.08;97.39
5455;BME280;2750;49.050;9.250;2022-10-14T15:41:02;98415.69;;;19.24;96.56
5455;BME280;2750;49.050;9.250;2022-10-14T15:46:04;98422.97;;;19.60;95.96
5455;BME280;2750;49.050;9.250;2022-10-14T15:51:27;98414.03;;;19.32;96.00
5455;BME280;2750;49.050;9.250;2022-10-14T15:56:29;98419.38;;;19.71;93.92
5455;BME280;2750;49.050;9.250;2022-10-14T16:01:33;98415.22;;;19.97;93.48
5455;BME280;2750;49.050;9.250;2022-10-14T16:06:38;98411.81;;;19.37;95.36
5455;BME280;2750;49.050;9.250;2022-10-14T16:11:39;98398.88;;;19.65;94.11
5455;BME280;2750;49.050;9.250;2022-10-14T16:16:43;98404.31;;;19.23;95.61
5455;BME280;2750;49.050;9.250;2022-10-14T16:21:46;98399.06;;;19.23;95.03
5455;BME280;2750;49.050;9.250;2022-10-14T16:26:49;98393.91;;;19.12;94.49
5455;BME280;2750;49.050;9.250;2022-10-14T16:31:51;98396.28;;;19.15;94.68
5455;BME280;2750;49.050;9.250;2022-10-14T16:36:54;98394.88;;;19.21;94.37
5455;BME280;2750;49.050;9.250;2022-10-14T16:41:56;98394.19;;;19.19;94.60
5455;BME280;2750;49.050;9.250;2022-10-14T16:46:58;98390.94;;;18.96;95.20
5455;BME280;2750;49.050;9.250;2022-10-14T16:52:20;98398.03;;;19.05;95.13
5455;BME280;2750;49.050;9.250;2022-10-14T16:57:22;98398.84;;;18.96;95.46
5455;BME280;2750;49.050;9.250;2022-10-14T17:02:24;98407.19;;;19.01;95.17
5455;BME280;2750;49.050;9.250;2022-10-14T17:07:32;98406.56;;;18.57;96.85
5455;BME280;2750;49.050;9.250;2022-10-14T17:12:34;98415.72;;;18.63;97.02
5455;BME280;2750;49.050;9.250;2022-10-14T17:17:35;98416.03;;;18.49;97.35
5455;BME280;2750;49.050;9.250;2022-10-14T17:22:40;98421.38;;;18.58;97.27
5455;BME280;2750;49.050;9.250;2022-10-14T17:27:42;98416.28;;;18.67;96.46
5455;BME280;2750;49.050;9.250;2022-10-14T17:32:43;98411.72;;;18.69;96.92
5455;BME280;2750;49.050;9.250;2022-10-14T17:37:46;98409.69;;;18.31;98.21
5455;BME280;2750;49.050;9.250;2022-10-14T17:42:48;98397.59;;;18.19;97.70
5455;BME280;2750;49.050;9.250;2022-10-14T17:47:50;98392.00;;;18.33;97.51
5455;BME280;2750;49.050;9.250;2022-10-14T17:52:56;98396.59;;;18.40;96.79
5455;BME280;2750;49.050;9.250;2022-10-14T17:57:58;98382.78;;;18.17;97.06
5455;BME280;2750;49.050;9.250;2022-10-14T18:03:00;98377.13;;;18.43;95.45
5455;BME280;2750;49.050;9.250;2022-10-14T18:08:03;98379.06;;;18.41;95.00
5455;BME280;2750;49.050;9.250;2022-10-14T18:13:05;98379.31;;;18.17;95.68
5455;BME280;2750;49.050;9.250;2022-10-14T18:18:06;98378.22;;;18.40;94.71
5455;BME280;2750;49.050;9.250;2022-10-14T18:23:09;98382.22;;;18.35;95.68
5455;BME280;2750;49.050;9.250;2022-10-14T18:28:11;98373.78;;;18.41;95.46
5455;BME280;2750;49.050;9.250;2022-10-14T18:33:13;98386.81;;;18.42;95.24
5455;BME280;2750;49.050;9.250;2022-10-14T18:38:16;98392.91;;;18.22;96.36
5455;BME280;2750;49.050;9.250;2022-10-14T18:43:17;98378.63;;;18.15;96.67
5455;BME280;2750;49.050;9.250;2022-10-14T18:48:19;98382.66;;;17.98;96.07
5455;BME280;2750;49.050;9.250;2022-10-14T18:53:23;98373.16;;;17.54;97.28
5455;BME280;2750;49.050;9.250;2022-10-14T18:58:24;98375.78;;;17.65;97.85
5455;BME280;2750;49.050;9.250;2022-10-14T19:03:26;98366.69;;;17.90;96.53
5455;BME280;2750;49.050;9.250;2022-10-14T19:08:29;98355.50;;;17.88;96.07
5455;BME280;2750;49.050;9.250;2022-10-14T19:13:31;98356.84;;;17.62;97.08
5455;BME280;2750;49.050;9.250;2022-10-14T19:18:33;98346.47;;;18.02;95.90
5455;BME280;2750;49.050;9.250;2022-10-14T19:23:37;98342.13;;;17.91;96.18
5455;BME280;2750;49.050;9.250;2022-10-14T19:28:39;98334.66;;;18.17;95.62
5455;BME280;2750;49.050;9.250;2022-10-14T19:33:42;98321.19;;;18.01;96.60
5455;BME280;2750;49.050;9.250;2022-10-14T19:38:47;98318.44;;;17.82;97.95
5455;BME280;2750;49.050;9.250;2022-10-14T19:43:51;98310.88;;;17.88;97.51
5455;BME280;2750;49.050;9.250;2022-10-14T19:48:54;98302.13;;;17.78;98.52
5455;BME280;2750;49.050;9.250;2022-10-14T19:53:58;98291.06;;;17.43;100.00
5455;BME280;2750;49.050;9.250;2022-10-14T19:58:59;98267.38;;;17.54;99.55
5455;BME280;2750;49.050;9.250;2022-10-14T20:04:01;98268.13;;;17.45;100.00
5455;BME280;2750;49.050;9.250;2022-10-14T20:09:05;98251.94;;;17.19;100.00
5455;BME280;2750;49.050;9.250;2022-10-14T20:14:07;98252.28;;;16.94;100.00
5455;BME280;2750;49.050;9.250;2022-10-14T20:19:08;98247.66;;;16.86;100.00
5455;BME280;2750;49.050;9.250;2022-10-14T20:24:11;98246.09;;;16.84;100.00
5455;BME280;2750;49.050;9.250;2022-10-14T20:29:13;98237.59;;;16.91;100.00
5455;BME280;2750;49.050;9.250;2022-10-14T20:34:14;98237.34;;;16.62;100.00
5455;BME280;2750;49.050;9.250;2022-10-14T20:39:17;98230.72;;;16.79;100.00
5455;BME280;2750;49.050;9.250;2022-10-14T20:44:19;98231.31;;;16.94;100.00
5455;BME280;2750;49.050;9.250;2022-10-14T20:49:21;98227.00;;;16.93;100.00
5455;BME280;2750;49.050;9.250;2022-10-14T20:54:24;98213.06;;;16.92;100.00
5455;BME280;2750;49.050;9.250;2022-10-14T20:59:26;98212.22;;;16.92;100.00
5455;BME280;2750;49.050;9.250;2022-10-14T21:04:27;98217.31;;;17.04;100.00
5455;BME280;2750;49.050;9.250;2022-10-14T21:09:30;98214.84;;;16.92;100.00
5455;BME280;2750;49.050;9.250;2022-10-14T21:14:32;98200.53;;;16.96;100.00
5455;BME280;2750;49.050;9.250;2022-10-14T21:19:34;98192.16;;;17.02;100.00
5455;BME280;2750;49.050;9.250;2022-10-14T21:24:37;98194.63;;;16.94;100.00
5455;BME280;2750;49.050;9.250;2022-10-14T21:29:40;98201.84;;;17.01;100.00
5455;BME280;2750;49.050;9.250;2022-10-14T21:34:41;98193.72;;;17.04;99.60
5455;BME280;2750;49.050;9.250;2022-10-14T21:39:44;98182.78;;;16.99;100.00
5455;BME280;2750;49.050;9.250;2022-10-14T21:44:46;98178.03;;;16.93;100.00
5455;BME280;2750;49.050;9.250;2022-10-14T21:49:47;98164.47;;;16.88;100.00
5455;BME280;2750;49.050;9.250;2022-10-14T21:54:50;98158.97;;;16.70;100.00
5455;BME280;2750;49.050;9.250;2022-10-14T21:59:52;98150.44;;;16.57;100.00
5455;BME280;2750;49.050;9.250;2022-10-14T22:04:53;98147.75;;;16.68;100.00
5455;BME280;2750;49.050;9.250;2022-10-14T22:09:56;98137.13;;;16.81;100.00
5455;BME280;2750;49.050;9.250;2022-10-14T22:14:58;98138.44;;;16.76;100.00
5455;BME280;2750;49.050;9.250;2022-10-14T22:19:59;98119.16;;;16.77;100.00
5455;BME280;2750;49.050;9.250;2022-10-14T22:25:03;98117.63;;;16.95;100.00
5455;BME280;2750;49.050;9.250;2022-10-14T22:30:05;98107.13;;;16.95;100.00
5455;BME280;2750;49.050;9.250;2022-10-14T22:35:08;98119.22;;;16.86;100.00
5455;BME280;2750;49.050;9.250;2022-10-14T22:40:11;98113.66;;;16.80;100.00
5455;BME280;2750;49.050;9.250;2022-10-14T22:45:13;98102.38;;;17.09;100.00
5455;BME280;2750;49.050;9.250;2022-10-14T22:50:15;98094.22;;;16.61;100.00
5455;BME280;2750;49.050;9.250;2022-10-14T22:55:18;98095.63;;;17.07;100.00
5455;BME280;2750;49.050;9.250;2022-10-14T23:00:19;98087.41;;;17.21;100.00
5455;BME280;2750;49.050;9.250;2022-10-14T23:05:21;98088.06;;;17.34;100.00
5455;BME280;2750;49.050;9.250;2022-10-14T23:10:24;98084.09;;;17.19;100.00
5455;BME280;2750;49.050;9.250;2022-10-14T23:15:25;98071.06;;;17.08;100.00
5455;BME280;2750;49.050;9.250;2022-10-14T23:20:27;98078.78;;;17.30;100.00
5455;BME280;2750;49.050;9.250;2022-10-14T23:25:30;98072.88;;;17.58;99.89
5455;BME280;2750;49.050;9.250;2022-10-14T23:30:31;98066.75;;;17.28;100.00
5455;BME280;2750;49.050;9.250;2022-10-14T23:35:34;98067.91;;;17.14;100.00
5455;BME280;2750;49.050;9.250;2022-10-14T23:40:37;98059.72;;;17.28;100.00
5455;BME280;2750;49.050;9.250;2022-10-14T23:45:38;98062.66;;;17.35;100.00
5455;BME280;2750;49.050;9.250;2022-10-14T23:50:40;98065.56;;;17.41;100.00
5455;BME280;2750;49.050;9.250;2022-10-14T23:55:45;98052.19;;;17.44;100.00
